West Liberty, Ohio
Current Conditions -  °F | °C
As of 12:30 PM on Friday 19 Dec 2014 (Local Time) from KEDJ Reporting Station
Overcast Overcast  
Wind Chill: 21°   Ceiling: 1000
Heat Index: 27°   Visibility: 6mi
Dew Point: 23°   Wind: 5mph
Humidity: 86%   Direction: 260°W
Pressure: 30.25"   Gusts: NA
Location:  40.25°N, 83.76°W
Report Text: KEDJ 191730Z AUTO 26004KT 6SM OVC010 M03/M05 A3025 RMK AO1
Loading
Personal Weather Stations






























Interactive Weather Map New forecast layout! Learn more

10-Day Weather Forecast

Advertisements
Track Severe Weather on mobile